Terminal Aerodrome Forecast
Issued by NWS

Home | Current Version | Previous Version | Text Only | Print | Product List | Glossary On
Versions: 1 2 3 4 5 6 7 8 9 10 11 12 13 14 15 16 17 18 19 20 21
000
FTUS45 KABQ 270500
TAFAEG
TAF
KAEG 270539Z 2706/2806 VRB05KT P6SM BKN040
     FM270700 33007KT P6SM VCSH SCT015 BKN035
     FM271000 35005KT P6SM SCT020 BKN040
     FM271700 01009KT P6SM SCT025 BKN060
     FM272300 12007KT P6SM VCSH OVC060
     FM280200 12007KT P6SM BKN060=

USA.gov is the U.S. government's official web portal to all federal, state and local government web resources and services.